sensor_id;sensor_type;location;lat;lon;timestamp;pressure;altitude;pressure_sealevel;temperature;humidity
6851;BME280;3464;42.728;23.296;2023-07-31T00:02:18;94906.50;;;31.77;45.68
6851;BME280;3464;42.728;23.296;2023-07-31T00:04:45;94920.62;;;32.17;44.81
6851;BME280;3464;42.728;23.296;2023-07-31T00:07:12;94913.24;;;32.22;44.78
6851;BME280;3464;42.728;23.296;2023-07-31T00:09:38;94917.17;;;32.64;44.13
6851;BME280;3464;42.728;23.296;2023-07-31T00:12:05;94914.88;;;32.19;44.41
6851;BME280;3464;42.728;23.296;2023-07-31T00:14:32;94910.60;;;32.39;44.57
6851;BME280;3464;42.728;23.296;2023-07-31T00:16:59;94902.73;;;31.97;45.32
6851;BME280;3464;42.728;23.296;2023-07-31T00:19:25;94903.59;;;32.66;44.10
6851;BME280;3464;42.728;23.296;2023-07-31T00:21:52;94908.05;;;32.59;44.34
6851;BME280;3464;42.728;23.296;2023-07-31T00:24:18;94901.06;;;32.28;44.95
6851;BME280;3464;42.728;23.296;2023-07-31T00:26:45;94900.52;;;32.50;44.71
6851;BME280;3464;42.728;23.296;2023-07-31T00:29:12;94895.44;;;32.49;44.55
6851;BME280;3464;42.728;23.296;2023-07-31T00:31:38;94876.21;;;32.81;44.00
6851;BME280;3464;42.728;23.296;2023-07-31T00:34:05;94880.69;;;32.38;44.88
6851;BME280;3464;42.728;23.296;2023-07-31T00:36:31;94874.17;;;31.96;45.94
6851;BME280;3464;42.728;23.296;2023-07-31T00:38:58;94864.95;;;32.18;45.38
6851;BME280;3464;42.728;23.296;2023-07-31T00:41:25;94868.49;;;31.90;46.14
6851;BME280;3464;42.728;23.296;2023-07-31T00:43:52;94864.51;;;31.71;46.21
6851;BME280;3464;42.728;23.296;2023-07-31T00:46:18;94877.05;;;31.55;46.65
6851;BME280;3464;42.728;23.296;2023-07-31T00:48:45;94877.16;;;31.81;46.30
6851;BME280;3464;42.728;23.296;2023-07-31T00:51:11;94880.09;;;31.39;47.14
6851;BME280;3464;42.728;23.296;2023-07-31T00:53:38;94879.91;;;31.68;46.65
6851;BME280;3464;42.728;23.296;2023-07-31T00:56:05;94870.44;;;31.40;47.35
6851;BME280;3464;42.728;23.296;2023-07-31T00:58:32;94870.68;;;31.26;47.79
6851;BME280;3464;42.728;23.296;2023-07-31T01:00:58;94867.59;;;31.32;47.52
6851;BME280;3464;42.728;23.296;2023-07-31T01:03:25;94854.98;;;31.49;47.37
6851;BME280;3464;42.728;23.296;2023-07-31T01:08:49;94867.21;;;31.80;46.96
6851;BME280;3464;42.728;23.296;2023-07-31T01:11:17;94859.24;;;31.88;47.02
6851;BME280;3464;42.728;23.296;2023-07-31T01:13:42;94862.44;;;31.54;47.64
6851;BME280;3464;42.728;23.296;2023-07-31T01:16:08;94854.59;;;31.43;47.97
6851;BME280;3464;42.728;23.296;2023-07-31T01:18:35;94855.62;;;31.07;48.79
6851;BME280;3464;42.728;23.296;2023-07-31T01:23:49;94852.99;;;31.68;47.30
6851;BME280;3464;42.728;23.296;2023-07-31T01:26:12;94849.69;;;31.34;48.24
6851;BME280;3464;42.728;23.296;2023-07-31T01:28:46;94850.45;;;30.46;50.23
6851;BME280;3464;42.728;23.296;2023-07-31T01:31:10;94838.56;;;30.27;50.67
6851;BME280;3464;42.728;23.296;2023-07-31T01:33:36;94839.11;;;30.36;50.32
6851;BME280;3464;42.728;23.296;2023-07-31T01:36:03;94850.61;;;30.61;49.72
6851;BME280;3464;42.728;23.296;2023-07-31T01:38:29;94844.88;;;30.57;50.21
6851;BME280;3464;42.728;23.296;2023-07-31T01:40:56;94846.89;;;30.70;49.93
6851;BME280;3464;42.728;23.296;2023-07-31T01:43:23;94851.37;;;30.68;49.89
6851;BME280;3464;42.728;23.296;2023-07-31T01:45:49;94845.45;;;30.50;50.39
6851;BME280;3464;42.728;23.296;2023-07-31T01:48:16;94844.41;;;30.69;49.79
6851;BME280;3464;42.728;23.296;2023-07-31T01:50:42;94853.84;;;30.76;49.90
6851;BME280;3464;42.728;23.296;2023-07-31T01:53:10;94851.98;;;30.49;50.25
6851;BME280;3464;42.728;23.296;2023-07-31T01:55:37;94850.98;;;31.23;48.77
6851;BME280;3464;42.728;23.296;2023-07-31T01:58:04;94851.83;;;30.51;50.33
6851;BME280;3464;42.728;23.296;2023-07-31T02:00:31;94853.37;;;31.32;48.64
6851;BME280;3464;42.728;23.296;2023-07-31T02:02:59;94856.95;;;30.91;49.24
6851;BME280;3464;42.728;23.296;2023-07-31T02:05:25;94862.30;;;30.72;49.99
6851;BME280;3464;42.728;23.296;2023-07-31T02:07:52;94858.39;;;30.73;50.32
6851;BME280;3464;42.728;23.296;2023-07-31T02:10:19;94856.67;;;30.95;49.65
6851;BME280;3464;42.728;23.296;2023-07-31T02:12:45;94855.89;;;31.43;48.70
6851;BME280;3464;42.728;23.296;2023-07-31T02:15:13;94865.38;;;31.55;48.66
6851;BME280;3464;42.728;23.296;2023-07-31T02:17:40;94861.67;;;31.85;48.08
6851;BME280;3464;42.728;23.296;2023-07-31T02:20:08;94855.03;;;31.81;48.24
6851;BME280;3464;42.728;23.296;2023-07-31T02:22:34;94852.61;;;31.84;48.27
6851;BME280;3464;42.728;23.296;2023-07-31T02:25:01;94861.13;;;31.81;48.25
6851;BME280;3464;42.728;23.296;2023-07-31T02:27:28;94856.92;;;32.00;47.77
6851;BME280;3464;42.728;23.296;2023-07-31T02:29:55;94847.80;;;32.00;47.74
6851;BME280;3464;42.728;23.296;2023-07-31T02:32:22;94858.52;;;31.81;48.29
6851;BME280;3464;42.728;23.296;2023-07-31T02:34:49;94850.95;;;31.78;48.41
6851;BME280;3464;42.728;23.296;2023-07-31T02:37:15;94853.59;;;31.12;49.64
6851;BME280;3464;42.728;23.296;2023-07-31T02:39:41;94860.44;;;31.24;49.34
6851;BME280;3464;42.728;23.296;2023-07-31T02:42:08;94866.25;;;31.06;50.11
6851;BME280;3464;42.728;23.296;2023-07-31T02:44:35;94864.12;;;31.44;49.45
6851;BME280;3464;42.728;23.296;2023-07-31T02:47:01;94867.59;;;31.65;48.75
6851;BME280;3464;42.728;23.296;2023-07-31T02:49:28;94874.23;;;31.36;49.54
6851;BME280;3464;42.728;23.296;2023-07-31T02:51:54;94875.44;;;31.81;48.66
6851;BME280;3464;42.728;23.296;2023-07-31T02:54:21;94880.83;;;31.84;48.22
6851;BME280;3464;42.728;23.296;2023-07-31T02:56:47;94886.13;;;32.09;47.94
6851;BME280;3464;42.728;23.296;2023-07-31T02:59:14;94877.48;;;31.93;48.11
6851;BME280;3464;42.728;23.296;2023-07-31T03:01:40;94890.12;;;31.33;49.59
6851;BME280;3464;42.728;23.296;2023-07-31T03:04:07;94885.12;;;32.11;48.16
6851;BME280;3464;42.728;23.296;2023-07-31T03:06:33;94892.78;;;32.49;47.26
6851;BME280;3464;42.728;23.296;2023-07-31T03:09:00;94890.34;;;32.68;46.76
6851;BME280;3464;42.728;23.296;2023-07-31T03:11:26;94894.47;;;32.60;46.88
6851;BME280;3464;42.728;23.296;2023-07-31T03:13:53;94891.19;;;32.58;46.93
6851;BME280;3464;42.728;23.296;2023-07-31T03:16:20;94891.91;;;32.65;46.61
6851;BME280;3464;42.728;23.296;2023-07-31T03:18:46;94889.53;;;32.82;46.28
6851;BME280;3464;42.728;23.296;2023-07-31T03:21:13;94884.50;;;32.65;46.50
6851;BME280;3464;42.728;23.296;2023-07-31T03:23:39;94888.23;;;32.82;46.16
6851;BME280;3464;42.728;23.296;2023-07-31T03:26:07;94882.98;;;32.63;46.72
6851;BME280;3464;42.728;23.296;2023-07-31T03:28:33;94888.63;;;32.68;46.59
6851;BME280;3464;42.728;23.296;2023-07-31T03:30:59;94886.14;;;32.61;46.54
6851;BME280;3464;42.728;23.296;2023-07-31T03:33:26;94899.09;;;32.62;46.44
6851;BME280;3464;42.728;23.296;2023-07-31T03:35:52;94893.25;;;32.59;46.70
6851;BME280;3464;42.728;23.296;2023-07-31T03:38:19;94885.72;;;32.19;47.41
6851;BME280;3464;42.728;23.296;2023-07-31T03:40:45;94892.09;;;32.16;47.22
6851;BME280;3464;42.728;23.296;2023-07-31T03:43:13;94898.73;;;32.09;47.57
6851;BME280;3464;42.728;23.296;2023-07-31T03:45:39;94905.47;;;31.69;48.00
6851;BME280;3464;42.728;23.296;2023-07-31T03:48:06;94911.02;;;31.59;48.39
6851;BME280;3464;42.728;23.296;2023-07-31T03:50:32;94903.33;;;31.68;48.32
6851;BME280;3464;42.728;23.296;2023-07-31T03:52:59;94909.37;;;32.01;47.66
6851;BME280;3464;42.728;23.296;2023-07-31T03:55:25;94905.83;;;31.91;47.87
6851;BME280;3464;42.728;23.296;2023-07-31T03:57:52;94910.84;;;31.99;47.75
6851;BME280;3464;42.728;23.296;2023-07-31T04:00:19;94908.83;;;32.18;47.34
6851;BME280;3464;42.728;23.296;2023-07-31T04:02:46;94907.99;;;31.86;47.85
6851;BME280;3464;42.728;23.296;2023-07-31T04:05:12;94910.69;;;32.06;47.74
6851;BME280;3464;42.728;23.296;2023-07-31T04:07:39;94915.95;;;32.58;46.60
6851;BME280;3464;42.728;23.296;2023-07-31T04:10:06;94907.89;;;32.92;46.11
6851;BME280;3464;42.728;23.296;2023-07-31T04:12:32;94913.55;;;32.60;46.15
6851;BME280;3464;42.728;23.296;2023-07-31T04:14:59;94905.31;;;32.45;46.64
6851;BME280;3464;42.728;23.296;2023-07-31T04:17:25;94911.45;;;32.75;45.96
6851;BME280;3464;42.728;23.296;2023-07-31T04:19:53;94914.53;;;32.90;45.51
6851;BME280;3464;42.728;23.296;2023-07-31T04:22:19;94916.03;;;33.39;44.60
6851;BME280;3464;42.728;23.296;2023-07-31T04:24:46;94914.09;;;33.11;45.12
6851;BME280;3464;42.728;23.296;2023-07-31T04:27:12;94923.09;;;32.81;45.51
6851;BME280;3464;42.728;23.296;2023-07-31T04:29:39;94923.44;;;32.62;45.98
6851;BME280;3464;42.728;23.296;2023-07-31T04:32:06;94925.21;;;32.98;45.51
6851;BME280;3464;42.728;23.296;2023-07-31T04:34:32;94925.34;;;32.96;45.53
6851;BME280;3464;42.728;23.296;2023-07-31T04:36:59;94924.44;;;32.45;46.00
6851;BME280;3464;42.728;23.296;2023-07-31T04:39:26;94927.22;;;32.84;45.62
6851;BME280;3464;42.728;23.296;2023-07-31T04:41:53;94931.95;;;33.60;43.99
6851;BME280;3464;42.728;23.296;2023-07-31T04:44:19;94920.56;;;34.39;42.82
6851;BME280;3464;42.728;23.296;2023-07-31T04:46:46;94920.50;;;34.64;42.37
6851;BME280;3464;42.728;23.296;2023-07-31T04:49:13;94917.42;;;35.34;40.95
6851;BME280;3464;42.728;23.296;2023-07-31T04:51:40;94911.66;;;36.29;39.83
6851;BME280;3464;42.728;23.296;2023-07-31T04:54:07;94920.53;;;37.98;36.83
6851;BME280;3464;42.728;23.296;2023-07-31T04:56:33;94918.98;;;37.00;38.09
6851;BME280;3464;42.728;23.296;2023-07-31T04:59:00;94919.63;;;37.91;36.87
6851;BME280;3464;42.728;23.296;2023-07-31T05:01:27;94916.72;;;38.75;35.52
6851;BME280;3464;42.728;23.296;2023-07-31T05:03:54;94915.44;;;39.46;34.61
6851;BME280;3464;42.728;23.296;2023-07-31T05:06:20;94922.59;;;41.01;32.45
6851;BME280;3464;42.728;23.296;2023-07-31T05:08:47;94911.13;;;41.01;32.30
6851;BME280;3464;42.728;23.296;2023-07-31T05:11:13;94927.02;;;40.97;31.46
6851;BME280;3464;42.728;23.296;2023-07-31T05:13:40;94924.63;;;40.31;32.45
6851;BME280;3464;42.728;23.296;2023-07-31T05:16:07;94922.13;;;39.80;32.94
6851;BME280;3464;42.728;23.296;2023-07-31T05:18:33;94909.09;;;39.00;33.93
6851;BME280;3464;42.728;23.296;2023-07-31T05:21:02;94914.56;;;38.50;34.76
6851;BME280;3464;42.728;23.296;2023-07-31T05:23:29;94915.15;;;38.45;34.69
6851;BME280;3464;42.728;23.296;2023-07-31T05:25:55;94912.90;;;38.00;35.25
6851;BME280;3464;42.728;23.296;2023-07-31T05:28:22;94916.25;;;39.39;33.89
6851;BME280;3464;42.728;23.296;2023-07-31T05:30:48;94917.70;;;40.94;32.22
6851;BME280;3464;42.728;23.296;2023-07-31T05:33:15;94914.42;;;42.76;29.88
6851;BME280;3464;42.728;23.296;2023-07-31T05:35:41;94911.66;;;43.26;29.17
6851;BME280;3464;42.728;23.296;2023-07-31T05:38:08;94916.77;;;43.27;28.23
6851;BME280;3464;42.728;23.296;2023-07-31T05:40:34;94915.25;;;43.29;28.52
6851;BME280;3464;42.728;23.296;2023-07-31T05:43:02;94919.66;;;41.77;29.61
6851;BME280;3464;42.728;23.296;2023-07-31T05:45:28;94917.95;;;40.39;31.15
6851;BME280;3464;42.728;23.296;2023-07-31T05:47:55;94917.92;;;38.31;33.42
6851;BME280;3464;42.728;23.296;2023-07-31T05:50:22;94914.69;;;38.53;33.38
6851;BME280;3464;42.728;23.296;2023-07-31T05:52:49;94914.35;;;37.19;34.94
6851;BME280;3464;42.728;23.296;2023-07-31T05:55:15;94909.75;;;36.66;36.07
6851;BME280;3464;42.728;23.296;2023-07-31T05:57:42;94915.80;;;37.05;35.43
6851;BME280;3464;42.728;23.296;2023-07-31T06:00:09;94930.62;;;37.90;34.29
6851;BME280;3464;42.728;23.296;2023-07-31T06:02:36;94933.88;;;37.21;34.85
6851;BME280;3464;42.728;23.296;2023-07-31T06:05:03;94933.39;;;37.09;35.46
6851;BME280;3464;42.728;23.296;2023-07-31T06:07:29;94934.65;;;38.91;32.58
6851;BME280;3464;42.728;23.296;2023-07-31T06:09:55;94942.28;;;42.01;29.36
6851;BME280;3464;42.728;23.296;2023-07-31T06:12:22;94938.38;;;39.74;31.33
6851;BME280;3464;42.728;23.296;2023-07-31T06:14:48;94936.60;;;40.27;30.77
6851;BME280;3464;42.728;23.296;2023-07-31T06:17:15;94934.55;;;41.63;28.96
6851;BME280;3464;42.728;23.296;2023-07-31T06:19:41;94942.74;;;40.34;30.50
6851;BME280;3464;42.728;23.296;2023-07-31T06:22:10;94940.94;;;40.12;30.96
6851;BME280;3464;42.728;23.296;2023-07-31T06:24:36;94945.69;;;39.54;31.39
6851;BME280;3464;42.728;23.296;2023-07-31T06:27:03;94947.74;;;40.37;30.37
6851;BME280;3464;42.728;23.296;2023-07-31T06:29:30;94944.89;;;40.46;29.98
6851;BME280;3464;42.728;23.296;2023-07-31T06:31:56;94944.59;;;39.91;30.73
6851;BME280;3464;42.728;23.296;2023-07-31T06:34:23;94945.27;;;41.40;29.04
6851;BME280;3464;42.728;23.296;2023-07-31T06:36:49;94943.81;;;40.44;29.81
6851;BME280;3464;42.728;23.296;2023-07-31T06:39:16;94946.41;;;40.52;30.07
6851;BME280;3464;42.728;23.296;2023-07-31T06:41:43;94948.07;;;41.71;28.91
6851;BME280;3464;42.728;23.296;2023-07-31T06:44:09;94953.33;;;40.53;29.80
6851;BME280;3464;42.728;23.296;2023-07-31T06:46:35;94952.39;;;40.15;29.90
6851;BME280;3464;42.728;23.296;2023-07-31T06:49:02;94945.27;;;39.02;31.31
6851;BME280;3464;42.728;23.296;2023-07-31T06:51:29;94936.80;;;39.20;31.19
6851;BME280;3464;42.728;23.296;2023-07-31T06:53:56;94943.54;;;39.85;30.42
6851;BME280;3464;42.728;23.296;2023-07-31T06:56:22;94943.93;;;42.73;27.52
6851;BME280;3464;42.728;23.296;2023-07-31T06:58:49;94947.78;;;40.70;28.89
6851;BME280;3464;42.728;23.296;2023-07-31T07:01:17;94939.53;;;40.81;29.45
6851;BME280;3464;42.728;23.296;2023-07-31T07:03:44;94938.19;;;43.56;26.68
6851;BME280;3464;42.728;23.296;2023-07-31T07:06:11;94946.41;;;44.02;25.70
6851;BME280;3464;42.728;23.296;2023-07-31T07:08:37;94944.27;;;44.62;25.09
6851;BME280;3464;42.728;23.296;2023-07-31T07:11:04;94932.90;;;47.41;22.86
6851;BME280;3464;42.728;23.296;2023-07-31T07:13:30;94931.64;;;49.01;21.25
6851;BME280;3464;42.728;23.296;2023-07-31T07:15:57;94931.83;;;48.62;21.57
6851;BME280;3464;42.728;23.296;2023-07-31T07:18:24;94935.61;;;50.28;20.25
6851;BME280;3464;42.728;23.296;2023-07-31T07:20:51;94931.63;;;48.96;21.12
6851;BME280;3464;42.728;23.296;2023-07-31T07:23:19;94935.52;;;50.04;20.61
6851;BME280;3464;42.728;23.296;2023-07-31T07:25:46;94931.09;;;47.59;22.20
6851;BME280;3464;42.728;23.296;2023-07-31T07:28:13;94926.32;;;45.29;23.92
6851;BME280;3464;42.728;23.296;2023-07-31T07:30:39;94935.21;;;45.32;23.61
6851;BME280;3464;42.728;23.296;2023-07-31T07:33:06;94934.80;;;45.48;23.54
6851;BME280;3464;42.728;23.296;2023-07-31T07:35:33;94925.82;;;46.60;22.73
6851;BME280;3464;42.728;23.296;2023-07-31T07:38:00;94928.44;;;47.77;21.91
6851;BME280;3464;42.728;23.296;2023-07-31T07:40:26;94939.20;;;51.21;19.54
6851;BME280;3464;42.728;23.296;2023-07-31T07:42:53;94937.49;;;47.85;21.04
6851;BME280;3464;42.728;23.296;2023-07-31T07:45:19;94933.23;;;46.01;22.54
6851;BME280;3464;42.728;23.296;2023-07-31T07:47:46;94938.44;;;48.36;21.15
6851;BME280;3464;42.728;23.296;2023-07-31T07:50:13;94940.52;;;49.88;19.88
6851;BME280;3464;42.728;23.296;2023-07-31T07:52:40;94933.63;;;49.61;20.09
6851;BME280;3464;42.728;23.296;2023-07-31T07:55:07;94940.52;;;48.78;20.42
6851;BME280;3464;42.728;23.296;2023-07-31T07:57:34;94935.23;;;49.28;20.28
6851;BME280;3464;42.728;23.296;2023-07-31T08:00:00;94947.00;;;47.90;21.03
6851;BME280;3464;42.728;23.296;2023-07-31T08:02:28;94942.33;;;46.91;22.20
6851;BME280;3464;42.728;23.296;2023-07-31T08:04:54;94936.55;;;46.97;21.97
6851;BME280;3464;42.728;23.296;2023-07-31T08:07:21;94939.67;;;48.09;20.97
6851;BME280;3464;42.728;23.296;2023-07-31T08:09:47;94940.27;;;45.37;23.06
6851;BME280;3464;42.728;23.296;2023-07-31T08:12:14;94944.53;;;42.96;24.96
6851;BME280;3464;42.728;23.296;2023-07-31T08:14:41;94938.55;;;40.96;27.18
6851;BME280;3464;42.728;23.296;2023-07-31T08:17:07;94943.05;;;40.47;27.90
6851;BME280;3464;42.728;23.296;2023-07-31T08:19:34;94939.28;;;38.28;30.27
6851;BME280;3464;42.728;23.296;2023-07-31T08:22:01;94939.09;;;38.10;30.60
6851;BME280;3464;42.728;23.296;2023-07-31T08:24:29;94942.84;;;38.40;30.03
6851;BME280;3464;42.728;23.296;2023-07-31T08:26:55;94939.11;;;39.11;29.55
6851;BME280;3464;42.728;23.296;2023-07-31T08:29:22;94937.47;;;37.62;31.32
6851;BME280;3464;42.728;23.296;2023-07-31T08:31:49;94930.14;;;39.13;30.00
6851;BME280;3464;42.728;23.296;2023-07-31T08:34:16;94931.80;;;38.65;30.45
6851;BME280;3464;42.728;23.296;2023-07-31T08:36:42;94932.03;;;37.69;31.16
6851;BME280;3464;42.728;23.296;2023-07-31T08:39:09;94938.78;;;38.54;30.33
6851;BME280;3464;42.728;23.296;2023-07-31T08:41:38;94943.16;;;39.02;29.85
6851;BME280;3464;42.728;23.296;2023-07-31T08:44:04;94939.36;;;39.04;29.91
6851;BME280;3464;42.728;23.296;2023-07-31T08:46:31;94926.80;;;39.89;29.07
6851;BME280;3464;42.728;23.296;2023-07-31T08:48:57;94933.86;;;40.95;27.76
6851;BME280;3464;42.728;23.296;2023-07-31T08:51:23;94931.58;;;40.92;27.65
6851;BME280;3464;42.728;23.296;2023-07-31T08:53:50;94930.19;;;40.17;28.20
6851;BME280;3464;42.728;23.296;2023-07-31T08:56:17;94936.15;;;39.84;28.07
6851;BME280;3464;42.728;23.296;2023-07-31T08:58:43;94931.02;;;38.92;28.90
6851;BME280;3464;42.728;23.296;2023-07-31T09:01:10;94929.23;;;39.09;29.01
6851;BME280;3464;42.728;23.296;2023-07-31T09:03:37;94931.66;;;39.62;28.52
6851;BME280;3464;42.728;23.296;2023-07-31T09:06:03;94924.84;;;38.44;30.00
6851;BME280;3464;42.728;23.296;2023-07-31T09:08:30;94932.87;;;38.19;30.06
6851;BME280;3464;42.728;23.296;2023-07-31T09:10:59;94932.45;;;38.59;30.43
6851;BME280;3464;42.728;23.296;2023-07-31T09:13:24;94919.79;;;39.93;28.49
6851;BME280;3464;42.728;23.296;2023-07-31T09:15:50;94913.73;;;39.57;28.87
6851;BME280;3464;42.728;23.296;2023-07-31T09:18:17;94904.63;;;39.68;29.28
6851;BME280;3464;42.728;23.296;2023-07-31T09:20:43;94909.91;;;38.97;29.62
6851;BME280;3464;42.728;23.296;2023-07-31T09:23:11;94907.83;;;39.12;29.74
6851;BME280;3464;42.728;23.296;2023-07-31T09:25:38;94910.65;;;39.46;29.39
6851;BME280;3464;42.728;23.296;2023-07-31T09:28:07;94897.73;;;39.08;29.26
6851;BME280;3464;42.728;23.296;2023-07-31T09:30:44;94899.93;;;39.12;29.63
6851;BME280;3464;42.728;23.296;2023-07-31T09:33:02;94886.30;;;39.00;29.61
6851;BME280;3464;42.728;23.296;2023-07-31T09:35:31;94903.13;;;37.35;31.00
6851;BME280;3464;42.728;23.296;2023-07-31T09:37:57;94898.80;;;36.88;32.16
6851;BME280;3464;42.728;23.296;2023-07-31T09:40:27;94898.58;;;38.56;30.36
6851;BME280;3464;42.728;23.296;2023-07-31T09:42:54;94896.46;;;39.11;29.41
6851;BME280;3464;42.728;23.296;2023-07-31T09:45:19;94890.97;;;39.37;28.66
6851;BME280;3464;42.728;23.296;2023-07-31T09:47:46;94891.69;;;39.23;29.28
6851;BME280;3464;42.728;23.296;2023-07-31T09:50:12;94888.50;;;39.12;29.29
6851;BME280;3464;42.728;23.296;2023-07-31T09:52:39;94893.79;;;37.41;31.15
6851;BME280;3464;42.728;23.296;2023-07-31T09:55:07;94882.72;;;37.63;30.77
6851;BME280;3464;42.728;23.296;2023-07-31T09:57:34;94885.84;;;37.91;31.07
6851;BME280;3464;42.728;23.296;2023-07-31T10:00:01;94881.94;;;38.84;29.91
6851;BME280;3464;42.728;23.296;2023-07-31T10:02:29;94881.52;;;38.32;29.81
6851;BME280;3464;42.728;23.296;2023-07-31T10:04:57;94888.92;;;38.76;29.91
6851;BME280;3464;42.728;23.296;2023-07-31T10:07:22;94878.80;;;38.80;29.09
6851;BME280;3464;42.728;23.296;2023-07-31T10:09:49;94872.00;;;39.24;28.69
6851;BME280;3464;42.728;23.296;2023-07-31T10:12:16;94878.06;;;39.62;27.90
6851;BME280;3464;42.728;23.296;2023-07-31T10:14:43;94879.73;;;38.80;28.73
6851;BME280;3464;42.728;23.296;2023-07-31T10:17:09;94880.59;;;40.17;28.00
6851;BME280;3464;42.728;23.296;2023-07-31T10:19:36;94879.41;;;40.64;27.17
6851;BME280;3464;42.728;23.296;2023-07-31T10:22:02;94882.49;;;39.81;28.06
6851;BME280;3464;42.728;23.296;2023-07-31T10:24:29;94877.01;;;40.25;27.42
6851;BME280;3464;42.728;23.296;2023-07-31T10:26:57;94874.75;;;39.13;28.77
6851;BME280;3464;42.728;23.296;2023-07-31T10:29:22;94874.11;;;38.31;29.11
6851;BME280;3464;42.728;23.296;2023-07-31T10:31:49;94866.29;;;39.02;28.74
6851;BME280;3464;42.728;23.296;2023-07-31T10:34:16;94871.70;;;39.17;27.82
6851;BME280;3464;42.728;23.296;2023-07-31T10:36:43;94878.53;;;38.10;29.15
6851;BME280;3464;42.728;23.296;2023-07-31T10:42:09;94877.33;;;38.46;29.15
6851;BME280;3464;42.728;23.296;2023-07-31T10:44:28;94871.50;;;38.99;27.94
6851;BME280;3464;42.728;23.296;2023-07-31T10:46:55;94875.03;;;37.32;29.73
6851;BME280;3464;42.728;23.296;2023-07-31T10:49:21;94871.49;;;38.43;29.36
6851;BME280;3464;42.728;23.296;2023-07-31T10:51:48;94871.56;;;39.06;28.92
6851;BME280;3464;42.728;23.296;2023-07-31T10:54:15;94859.78;;;39.41;27.87
6851;BME280;3464;42.728;23.296;2023-07-31T10:56:44;94854.28;;;39.74;26.84
6851;BME280;3464;42.728;23.296;2023-07-31T10:59:08;94859.91;;;39.24;27.15
6851;BME280;3464;42.728;23.296;2023-07-31T11:04:32;94849.83;;;38.92;28.50
6851;BME280;3464;42.728;23.296;2023-07-31T11:07:00;94848.77;;;39.06;27.17
6851;BME280;3464;42.728;23.296;2023-07-31T11:09:28;94846.33;;;38.37;28.06
6851;BME280;3464;42.728;23.296;2023-07-31T11:11:54;94848.47;;;38.81;28.92
6851;BME280;3464;42.728;23.296;2023-07-31T11:14:20;94837.20;;;38.80;26.92
6851;BME280;3464;42.728;23.296;2023-07-31T11:16:49;94842.07;;;38.76;27.73
6851;BME280;3464;42.728;23.296;2023-07-31T11:19:13;94841.93;;;39.40;27.08
6851;BME280;3464;42.728;23.296;2023-07-31T11:21:40;94849.05;;;39.47;26.30
6851;BME280;3464;42.728;23.296;2023-07-31T11:24:06;94851.61;;;38.65;27.21
6851;BME280;3464;42.728;23.296;2023-07-31T11:26:33;94855.07;;;37.13;28.40
6851;BME280;3464;42.728;23.296;2023-07-31T11:29:00;94846.82;;;38.12;27.99
6851;BME280;3464;42.728;23.296;2023-07-31T11:31:27;94856.77;;;37.92;28.57
6851;BME280;3464;42.728;23.296;2023-07-31T11:34:04;94853.66;;;37.60;29.01
6851;BME280;3464;42.728;23.296;2023-07-31T11:36:30;94849.94;;;37.54;29.23
6851;BME280;3464;42.728;23.296;2023-07-31T11:39:04;94843.78;;;37.54;29.21
6851;BME280;3464;42.728;23.296;2023-07-31T11:41:24;94842.23;;;38.10;28.98
6851;BME280;3464;42.728;23.296;2023-07-31T11:43:58;94837.80;;;37.32;29.88
6851;BME280;3464;42.728;23.296;2023-07-31T11:46:18;94834.02;;;37.59;29.23
6851;BME280;3464;42.728;23.296;2023-07-31T11:48:45;94838.31;;;37.93;28.84
6851;BME280;3464;42.728;23.296;2023-07-31T11:51:13;94822.58;;;37.68;29.47
6851;BME280;3464;42.728;23.296;2023-07-31T11:53:44;94822.26;;;37.30;29.54
6851;BME280;3464;42.728;23.296;2023-07-31T11:56:11;94832.35;;;37.17;29.22
6851;BME280;3464;42.728;23.296;2023-07-31T11:58:37;94823.19;;;37.00;29.14
6851;BME280;3464;42.728;23.296;2023-07-31T12:01:04;94825.61;;;37.23;29.67
6851;BME280;3464;42.728;23.296;2023-07-31T12:03:31;94825.30;;;37.80;28.97
6851;BME280;3464;42.728;23.296;2023-07-31T12:05:59;94827.47;;;37.43;29.39
6851;BME280;3464;42.728;23.296;2023-07-31T12:08:25;94831.61;;;36.60;30.41
6851;BME280;3464;42.728;23.296;2023-07-31T12:10:52;94827.63;;;36.87;30.39
6851;BME280;3464;42.728;23.296;2023-07-31T12:13:21;94820.38;;;37.31;30.46
6851;BME280;3464;42.728;23.296;2023-07-31T12:15:48;94812.44;;;38.98;28.28
6851;BME280;3464;42.728;23.296;2023-07-31T12:18:19;94821.88;;;36.74;29.63
6851;BME280;3464;42.728;23.296;2023-07-31T12:20:45;94818.89;;;36.35;30.28
6851;BME280;3464;42.728;23.296;2023-07-31T12:23:15;94815.92;;;37.15;29.74
6851;BME280;3464;42.728;23.296;2023-07-31T12:25:41;94808.88;;;37.11;29.88
6851;BME280;3464;42.728;23.296;2023-07-31T12:28:08;94799.41;;;38.37;28.86
6851;BME280;3464;42.728;23.296;2023-07-31T12:30:35;94798.04;;;38.89;28.20
6851;BME280;3464;42.728;23.296;2023-07-31T12:33:05;94789.43;;;40.29;26.64
6851;BME280;3464;42.728;23.296;2023-07-31T12:35:35;94814.33;;;40.38;26.05
6851;BME280;3464;42.728;23.296;2023-07-31T12:38:01;94804.22;;;39.43;27.24
6851;BME280;3464;42.728;23.296;2023-07-31T12:40:27;94806.40;;;39.04;27.40
6851;BME280;3464;42.728;23.296;2023-07-31T12:42:54;94796.31;;;37.76;28.50
6851;BME280;3464;42.728;23.296;2023-07-31T12:45:20;94799.31;;;37.40;29.37
6851;BME280;3464;42.728;23.296;2023-07-31T12:47:47;94799.52;;;37.75;29.07
6851;BME280;3464;42.728;23.296;2023-07-31T12:50:14;94805.61;;;37.30;29.48
6851;BME280;3464;42.728;23.296;2023-07-31T12:52:40;94793.52;;;38.19;29.19
6851;BME280;3464;42.728;23.296;2023-07-31T12:55:07;94790.86;;;38.39;28.43
6851;BME280;3464;42.728;23.296;2023-07-31T12:57:34;94786.56;;;39.09;28.08
6851;BME280;3464;42.728;23.296;2023-07-31T13:00:01;94780.96;;;39.93;26.90
6851;BME280;3464;42.728;23.296;2023-07-31T13:02:27;94791.80;;;38.79;27.96
6851;BME280;3464;42.728;23.296;2023-07-31T13:04:55;94786.76;;;38.40;28.08
6851;BME280;3464;42.728;23.296;2023-07-31T13:07:22;94788.27;;;37.49;28.54
6851;BME280;3464;42.728;23.296;2023-07-31T13:09:49;94782.38;;;37.92;28.32
6851;BME280;3464;42.728;23.296;2023-07-31T13:12:16;94783.67;;;37.22;28.97
6851;BME280;3464;42.728;23.296;2023-07-31T13:14:43;94789.10;;;37.58;28.54
6851;BME280;3464;42.728;23.296;2023-07-31T13:17:10;94784.34;;;38.50;27.19
6851;BME280;3464;42.728;23.296;2023-07-31T13:19:36;94783.11;;;36.64;29.14